sensor_id;sensor_type;location;lat;lon;timestamp;temperature;humidity
46730;DHT22;32476;50.002;11.854;2023-09-30T00:01:40;15.10;99.90
46730;DHT22;32476;50.002;11.854;2023-09-30T00:04:07;15.10;99.90
46730;DHT22;32476;50.002;11.854;2023-09-30T00:06:34;15.10;99.90
46730;DHT22;32476;50.002;11.854;2023-09-30T00:09:00;15.10;99.90
46730;DHT22;32476;50.002;11.854;2023-09-30T00:11:28;15.10;99.90
46730;DHT22;32476;50.002;11.854;2023-09-30T00:13:54;15.10;99.90
46730;DHT22;32476;50.002;11.854;2023-09-30T00:16:20;15.10;99.90
46730;DHT22;32476;50.002;11.854;2023-09-30T00:18:48;15.00;99.90
46730;DHT22;32476;50.002;11.854;2023-09-30T00:21:14;15.00;99.90
46730;DHT22;32476;50.002;11.854;2023-09-30T00:23:40;15.00;99.90
46730;DHT22;32476;50.002;11.854;2023-09-30T00:26:08;15.10;99.90
46730;DHT22;32476;50.002;11.854;2023-09-30T00:28:34;15.10;99.90
46730;DHT22;32476;50.002;11.854;2023-09-30T00:31:00;15.00;99.90
46730;DHT22;32476;50.002;11.854;2023-09-30T00:33:27;15.00;99.90
46730;DHT22;32476;50.002;11.854;2023-09-30T00:35:53;15.00;99.90
46730;DHT22;32476;50.002;11.854;2023-09-30T00:38:19;15.00;99.90
46730;DHT22;32476;50.002;11.854;2023-09-30T00:40:48;15.00;99.90
46730;DHT22;32476;50.002;11.854;2023-09-30T00:43:21;15.00;99.90
46730;DHT22;32476;50.002;11.854;2023-09-30T00:45:49;14.90;99.90
46730;DHT22;32476;50.002;11.854;2023-09-30T00:48:37;14.90;99.90
46730;DHT22;32476;50.002;11.854;2023-09-30T00:51:05;14.90;99.90
46730;DHT22;32476;50.002;11.854;2023-09-30T00:53:32;14.90;99.90
46730;DHT22;32476;50.002;11.854;2023-09-30T00:55:59;14.90;99.90
46730;DHT22;32476;50.002;11.854;2023-09-30T00:58:26;14.80;99.90
46730;DHT22;32476;50.002;11.854;2023-09-30T01:00:56;14.70;99.90
46730;DHT22;32476;50.002;11.854;2023-09-30T01:03:23;14.70;99.90
46730;DHT22;32476;50.002;11.854;2023-09-30T01:05:50;14.60;99.90
46730;DHT22;32476;50.002;11.854;2023-09-30T01:08:16;14.60;99.90
46730;DHT22;32476;50.002;11.854;2023-09-30T01:10:43;14.60;99.90
46730;DHT22;32476;50.002;11.854;2023-09-30T01:13:11;14.60;99.90
46730;DHT22;32476;50.002;11.854;2023-09-30T01:15:37;14.60;99.90
46730;DHT22;32476;50.002;11.854;2023-09-30T01:18:03;14.50;99.90
46730;DHT22;32476;50.002;11.854;2023-09-30T01:20:31;14.50;99.90
46730;DHT22;32476;50.002;11.854;2023-09-30T01:22:58;14.50;99.90
46730;DHT22;32476;50.002;11.854;2023-09-30T01:25:24;14.50;99.90
46730;DHT22;32476;50.002;11.854;2023-09-30T01:27:52;14.50;99.90
46730;DHT22;32476;50.002;11.854;2023-09-30T01:30:18;14.50;99.90
46730;DHT22;32476;50.002;11.854;2023-09-30T01:32:44;14.50;99.90
46730;DHT22;32476;50.002;11.854;2023-09-30T01:35:12;14.50;99.90
46730;DHT22;32476;50.002;11.854;2023-09-30T01:37:37;14.40;99.90
46730;DHT22;32476;50.002;11.854;2023-09-30T01:40:04;14.40;99.90
46730;DHT22;32476;50.002;11.854;2023-09-30T01:42:35;14.30;99.90
46730;DHT22;32476;50.002;11.854;2023-09-30T01:45:02;14.30;99.90
46730;DHT22;32476;50.002;11.854;2023-09-30T01:47:28;14.30;99.90
46730;DHT22;32476;50.002;11.854;2023-09-30T01:49:56;14.30;99.90
46730;DHT22;32476;50.002;11.854;2023-09-30T01:52:22;14.30;99.90
46730;DHT22;32476;50.002;11.854;2023-09-30T01:54:48;14.30;99.90
46730;DHT22;32476;50.002;11.854;2023-09-30T01:57:15;14.20;99.90
46730;DHT22;32476;50.002;11.854;2023-09-30T01:59:41;14.20;99.90
46730;DHT22;32476;50.002;11.854;2023-09-30T02:02:07;14.20;99.90
46730;DHT22;32476;50.002;11.854;2023-09-30T02:04:35;14.10;99.90
46730;DHT22;32476;50.002;11.854;2023-09-30T02:07:02;14.10;99.90
46730;DHT22;32476;50.002;11.854;2023-09-30T02:09:28;14.10;99.90
46730;DHT22;32476;50.002;11.854;2023-09-30T02:11:55;14.10;99.90
46730;DHT22;32476;50.002;11.854;2023-09-30T02:14:21;14.10;99.90
46730;DHT22;32476;50.002;11.854;2023-09-30T02:16:47;14.10;99.90
46730;DHT22;32476;50.002;11.854;2023-09-30T02:19:15;14.10;99.90
46730;DHT22;32476;50.002;11.854;2023-09-30T02:21:40;14.10;99.90
46730;DHT22;32476;50.002;11.854;2023-09-30T02:24:06;14.10;99.90
46730;DHT22;32476;50.002;11.854;2023-09-30T02:26:34;14.10;99.90
46730;DHT22;32476;50.002;11.854;2023-09-30T02:29:00;14.20;99.90
46730;DHT22;32476;50.002;11.854;2023-09-30T02:31:26;14.20;99.90
46730;DHT22;32476;50.002;11.854;2023-09-30T02:33:53;14.10;99.90
46730;DHT22;32476;50.002;11.854;2023-09-30T02:36:19;14.20;99.90
46730;DHT22;32476;50.002;11.854;2023-09-30T02:38:45;14.10;99.90
46730;DHT22;32476;50.002;11.854;2023-09-30T02:41:15;14.20;99.90
46730;DHT22;32476;50.002;11.854;2023-09-30T02:43:41;14.20;99.90
46730;DHT22;32476;50.002;11.854;2023-09-30T02:46:07;14.20;99.90
46730;DHT22;32476;50.002;11.854;2023-09-30T02:48:35;14.10;99.90
46730;DHT22;32476;50.002;11.854;2023-09-30T02:51:01;14.10;99.90
46730;DHT22;32476;50.002;11.854;2023-09-30T02:53:27;14.10;99.90
46730;DHT22;32476;50.002;11.854;2023-09-30T02:55:54;14.00;99.90
46730;DHT22;32476;50.002;11.854;2023-09-30T02:58:23;13.80;99.90
46730;DHT22;32476;50.002;11.854;2023-09-30T03:00:50;13.70;99.90
46730;DHT22;32476;50.002;11.854;2023-09-30T03:03:18;13.50;99.90
46730;DHT22;32476;50.002;11.854;2023-09-30T03:05:44;13.40;99.90
46730;DHT22;32476;50.002;11.854;2023-09-30T03:08:11;13.40;99.90
46730;DHT22;32476;50.002;11.854;2023-09-30T03:10:38;13.30;99.90
46730;DHT22;32476;50.002;11.854;2023-09-30T03:13:06;13.30;99.90
46730;DHT22;32476;50.002;11.854;2023-09-30T03:15:35;13.30;99.90
46730;DHT22;32476;50.002;11.854;2023-09-30T03:18:03;13.30;99.90
46730;DHT22;32476;50.002;11.854;2023-09-30T03:20:29;13.30;99.90
46730;DHT22;32476;50.002;11.854;2023-09-30T03:22:57;13.20;99.90
46730;DHT22;32476;50.002;11.854;2023-09-30T03:25:25;13.20;99.90
46730;DHT22;32476;50.002;11.854;2023-09-30T03:27:50;13.10;99.90
46730;DHT22;32476;50.002;11.854;2023-09-30T03:30:17;13.20;99.90
46730;DHT22;32476;50.002;11.854;2023-09-30T03:32:47;13.10;99.90
46730;DHT22;32476;50.002;11.854;2023-09-30T03:35:13;13.10;99.90
46730;DHT22;32476;50.002;11.854;2023-09-30T03:37:46;13.10;99.90
46730;DHT22;32476;50.002;11.854;2023-09-30T03:40:13;13.00;99.90
46730;DHT22;32476;50.002;11.854;2023-09-30T03:42:44;13.00;99.90
46730;DHT22;32476;50.002;11.854;2023-09-30T03:45:12;12.90;99.90
46730;DHT22;32476;50.002;11.854;2023-09-30T03:47:41;12.80;99.90
46730;DHT22;32476;50.002;11.854;2023-09-30T03:50:08;12.70;99.90
46730;DHT22;32476;50.002;11.854;2023-09-30T03:52:43;12.60;99.90
46730;DHT22;32476;50.002;11.854;2023-09-30T03:55:13;12.50;99.90
46730;DHT22;32476;50.002;11.854;2023-09-30T03:57:42;12.50;99.90
46730;DHT22;32476;50.002;11.854;2023-09-30T04:00:11;12.40;99.90
46730;DHT22;32476;50.002;11.854;2023-09-30T04:02:46;12.40;99.90
46730;DHT22;32476;50.002;11.854;2023-09-30T04:05:15;12.40;99.90
46730;DHT22;32476;50.002;11.854;2023-09-30T04:07:43;12.40;99.90
46730;DHT22;32476;50.002;11.854;2023-09-30T04:10:10;12.40;99.90
46730;DHT22;32476;50.002;11.854;2023-09-30T04:12:37;12.30;99.90
46730;DHT22;32476;50.002;11.854;2023-09-30T04:15:03;12.30;99.90
46730;DHT22;32476;50.002;11.854;2023-09-30T04:17:34;12.20;99.90
46730;DHT22;32476;50.002;11.854;2023-09-30T04:20:00;12.20;99.90
46730;DHT22;32476;50.002;11.854;2023-09-30T04:22:26;12.10;99.90
46730;DHT22;32476;50.002;11.854;2023-09-30T04:24:56;12.00;99.90
46730;DHT22;32476;50.002;11.854;2023-09-30T04:27:22;12.00;99.90
46730;DHT22;32476;50.002;11.854;2023-09-30T04:29:48;12.00;99.90
46730;DHT22;32476;50.002;11.854;2023-09-30T04:32:16;12.10;99.90
46730;DHT22;32476;50.002;11.854;2023-09-30T04:34:42;12.10;99.90
46730;DHT22;32476;50.002;11.854;2023-09-30T04:37:09;12.10;99.90
46730;DHT22;32476;50.002;11.854;2023-09-30T04:39:36;12.00;99.90
46730;DHT22;32476;50.002;11.854;2023-09-30T04:42:02;12.00;99.90
46730;DHT22;32476;50.002;11.854;2023-09-30T04:44:30;11.90;99.90
46730;DHT22;32476;50.002;11.854;2023-09-30T04:46:57;12.00;99.90
46730;DHT22;32476;50.002;11.854;2023-09-30T04:49:24;12.00;99.90
46730;DHT22;32476;50.002;11.854;2023-09-30T04:51:50;12.00;99.90
46730;DHT22;32476;50.002;11.854;2023-09-30T04:54:17;12.00;99.90
46730;DHT22;32476;50.002;11.854;2023-09-30T04:56:43;12.00;99.90
46730;DHT22;32476;50.002;11.854;2023-09-30T04:59:09;12.00;99.90
46730;DHT22;32476;50.002;11.854;2023-09-30T05:01:36;11.90;99.90
46730;DHT22;32476;50.002;11.854;2023-09-30T05:04:03;11.90;99.90
46730;DHT22;32476;50.002;11.854;2023-09-30T05:06:31;11.90;99.90
46730;DHT22;32476;50.002;11.854;2023-09-30T05:08:59;11.80;99.90
46730;DHT22;32476;50.002;11.854;2023-09-30T05:11:25;11.80;99.90
46730;DHT22;32476;50.002;11.854;2023-09-30T05:13:51;11.80;99.90
46730;DHT22;32476;50.002;11.854;2023-09-30T05:16:19;11.80;99.90
46730;DHT22;32476;50.002;11.854;2023-09-30T05:18:45;11.70;99.90
46730;DHT22;32476;50.002;11.854;2023-09-30T05:21:11;11.70;99.90
46730;DHT22;32476;50.002;11.854;2023-09-30T05:23:38;11.70;99.90
46730;DHT22;32476;50.002;11.854;2023-09-30T05:26:04;11.60;99.90
46730;DHT22;32476;50.002;11.854;2023-09-30T05:28:30;11.60;99.90
46730;DHT22;32476;50.002;11.854;2023-09-30T05:30:59;11.50;99.90
46730;DHT22;32476;50.002;11.854;2023-09-30T05:33:25;11.50;99.90
46730;DHT22;32476;50.002;11.854;2023-09-30T05:35:51;11.50;99.90
46730;DHT22;32476;50.002;11.854;2023-09-30T05:38:18;11.50;99.90
46730;DHT22;32476;50.002;11.854;2023-09-30T05:40:45;11.50;99.90
46730;DHT22;32476;50.002;11.854;2023-09-30T05:43:11;11.50;99.90
46730;DHT22;32476;50.002;11.854;2023-09-30T05:45:41;11.50;99.90
46730;DHT22;32476;50.002;11.854;2023-09-30T05:48:15;11.50;99.90
46730;DHT22;32476;50.002;11.854;2023-09-30T05:50:43;11.50;99.90
46730;DHT22;32476;50.002;11.854;2023-09-30T05:53:09;11.40;99.90
46730;DHT22;32476;50.002;11.854;2023-09-30T05:55:37;11.50;99.90
46730;DHT22;32476;50.002;11.854;2023-09-30T05:58:04;11.50;99.90
46730;DHT22;32476;50.002;11.854;2023-09-30T06:00:31;11.40;99.90
46730;DHT22;32476;50.002;11.854;2023-09-30T06:02:59;11.50;99.90
46730;DHT22;32476;50.002;11.854;2023-09-30T06:05:27;11.40;99.90
46730;DHT22;32476;50.002;11.854;2023-09-30T06:07:56;11.40;99.90
46730;DHT22;32476;50.002;11.854;2023-09-30T06:10:22;11.40;99.90
46730;DHT22;32476;50.002;11.854;2023-09-30T06:12:53;11.50;99.90
46730;DHT22;32476;50.002;11.854;2023-09-30T06:15:21;11.40;99.90
46730;DHT22;32476;50.002;11.854;2023-09-30T06:17:56;11.40;99.90
46730;DHT22;32476;50.002;11.854;2023-09-30T06:20:22;11.40;99.90
46730;DHT22;32476;50.002;11.854;2023-09-30T06:22:49;11.40;99.90
46730;DHT22;32476;50.002;11.854;2023-09-30T06:25:17;11.40;99.90
46730;DHT22;32476;50.002;11.854;2023-09-30T06:27:47;11.40;99.90
46730;DHT22;32476;50.002;11.854;2023-09-30T06:30:14;11.50;99.90
46730;DHT22;32476;50.002;11.854;2023-09-30T06:32:47;11.50;99.90
46730;DHT22;32476;50.002;11.854;2023-09-30T06:35:13;11.40;99.90
46730;DHT22;32476;50.002;11.854;2023-09-30T06:37:40;11.50;99.90
46730;DHT22;32476;50.002;11.854;2023-09-30T06:40:10;11.50;99.90
46730;DHT22;32476;50.002;11.854;2023-09-30T06:42:38;11.50;99.90
46730;DHT22;32476;50.002;11.854;2023-09-30T06:45:09;11.60;99.90
46730;DHT22;32476;50.002;11.854;2023-09-30T06:47:36;11.60;99.90
46730;DHT22;32476;50.002;11.854;2023-09-30T06:50:05;11.70;99.90
46730;DHT22;32476;50.002;11.854;2023-09-30T06:52:37;11.70;99.90
46730;DHT22;32476;50.002;11.854;2023-09-30T06:55:05;11.60;99.90
46730;DHT22;32476;50.002;11.854;2023-09-30T06:57:35;11.60;99.90
46730;DHT22;32476;50.002;11.854;2023-09-30T07:00:08;11.60;99.90
46730;DHT22;32476;50.002;11.854;2023-09-30T07:02:36;11.60;99.90
46730;DHT22;32476;50.002;11.854;2023-09-30T07:05:11;11.80;99.90
46730;DHT22;32476;50.002;11.854;2023-09-30T07:07:39;11.70;99.90
46730;DHT22;32476;50.002;11.854;2023-09-30T07:10:07;11.70;99.90
46730;DHT22;32476;50.002;11.854;2023-09-30T07:12:33;11.70;99.90
46730;DHT22;32476;50.002;11.854;2023-09-30T07:15:05;11.80;99.90
46730;DHT22;32476;50.002;11.854;2023-09-30T07:17:33;11.80;99.90
46730;DHT22;32476;50.002;11.854;2023-09-30T07:20:00;11.60;99.90
46730;DHT22;32476;50.002;11.854;2023-09-30T07:22:27;11.60;99.90
46730;DHT22;32476;50.002;11.854;2023-09-30T07:24:54;11.60;99.90
46730;DHT22;32476;50.002;11.854;2023-09-30T07:27:21;11.60;99.90
46730;DHT22;32476;50.002;11.854;2023-09-30T07:29:46;11.70;99.90
46730;DHT22;32476;50.002;11.854;2023-09-30T07:32:15;11.70;99.90
46730;DHT22;32476;50.002;11.854;2023-09-30T07:34:41;11.90;99.90
46730;DHT22;32476;50.002;11.854;2023-09-30T07:37:08;12.00;99.90
46730;DHT22;32476;50.002;11.854;2023-09-30T07:39:35;11.80;99.90
46730;DHT22;32476;50.002;11.854;2023-09-30T07:42:01;11.90;99.90
46730;DHT22;32476;50.002;11.854;2023-09-30T07:44:27;11.90;99.90
46730;DHT22;32476;50.002;11.854;2023-09-30T07:46:55;12.00;99.90
46730;DHT22;32476;50.002;11.854;2023-09-30T07:49:21;12.00;99.90
46730;DHT22;32476;50.002;11.854;2023-09-30T07:51:47;12.00;99.90
46730;DHT22;32476;50.002;11.854;2023-09-30T07:54:15;12.10;99.90
46730;DHT22;32476;50.002;11.854;2023-09-30T07:56:42;12.10;99.90
46730;DHT22;32476;50.002;11.854;2023-09-30T07:59:08;12.10;99.90
46730;DHT22;32476;50.002;11.854;2023-09-30T08:01:37;12.20;99.90
46730;DHT22;32476;50.002;11.854;2023-09-30T08:04:03;12.20;99.90
46730;DHT22;32476;50.002;11.854;2023-09-30T08:06:40;12.20;99.90
46730;DHT22;32476;50.002;11.854;2023-09-30T08:09:06;12.40;99.90
46730;DHT22;32476;50.002;11.854;2023-09-30T08:11:37;12.40;99.90
46730;DHT22;32476;50.002;11.854;2023-09-30T08:14:05;12.40;99.90
46730;DHT22;32476;50.002;11.854;2023-09-30T08:16:37;12.40;99.90
46730;DHT22;32476;50.002;11.854;2023-09-30T08:19:05;12.60;99.90
46730;DHT22;32476;50.002;11.854;2023-09-30T08:21:31;12.70;99.90
46730;DHT22;32476;50.002;11.854;2023-09-30T08:23:57;12.80;99.90
46730;DHT22;32476;50.002;11.854;2023-09-30T08:26:25;12.70;99.90
46730;DHT22;32476;50.002;11.854;2023-09-30T08:28:51;12.70;99.90
46730;DHT22;32476;50.002;11.854;2023-09-30T08:31:17;12.70;99.90
46730;DHT22;32476;50.002;11.854;2023-09-30T08:33:44;12.70;99.90
46730;DHT22;32476;50.002;11.854;2023-09-30T08:36:11;12.60;99.90
46730;DHT22;32476;50.002;11.854;2023-09-30T08:38:38;12.70;99.90
46730;DHT22;32476;50.002;11.854;2023-09-30T08:41:08;12.70;99.90
46730;DHT22;32476;50.002;11.854;2023-09-30T08:43:39;12.80;99.90
46730;DHT22;32476;50.002;11.854;2023-09-30T08:46:07;12.80;99.90
46730;DHT22;32476;50.002;11.854;2023-09-30T08:48:34;12.80;99.90
46730;DHT22;32476;50.002;11.854;2023-09-30T08:51:00;12.90;99.90
46730;DHT22;32476;50.002;11.854;2023-09-30T08:53:30;12.90;99.90
46730;DHT22;32476;50.002;11.854;2023-09-30T08:55:57;12.90;99.90
46730;DHT22;32476;50.002;11.854;2023-09-30T08:58:28;13.00;99.90
46730;DHT22;32476;50.002;11.854;2023-09-30T09:00:56;12.90;99.90
46730;DHT22;32476;50.002;11.854;2023-09-30T09:03:22;12.90;99.90
46730;DHT22;32476;50.002;11.854;2023-09-30T09:05:55;13.00;99.90
46730;DHT22;32476;50.002;11.854;2023-09-30T09:08:26;12.90;99.90
46730;DHT22;32476;50.002;11.854;2023-09-30T09:11:01;13.10;99.90
46730;DHT22;32476;50.002;11.854;2023-09-30T09:13:51;13.10;99.90
46730;DHT22;32476;50.002;11.854;2023-09-30T09:16:23;13.10;99.90
46730;DHT22;32476;50.002;11.854;2023-09-30T09:18:50;12.90;99.90
46730;DHT22;32476;50.002;11.854;2023-09-30T09:21:21;13.00;99.90
46730;DHT22;32476;50.002;11.854;2023-09-30T09:23:53;13.00;99.90
46730;DHT22;32476;50.002;11.854;2023-09-30T09:26:28;13.10;99.90
46730;DHT22;32476;50.002;11.854;2023-09-30T09:28:59;12.90;99.90
46730;DHT22;32476;50.002;11.854;2023-09-30T09:31:28;13.00;99.90
46730;DHT22;32476;50.002;11.854;2023-09-30T09:33:56;13.00;99.90
46730;DHT22;32476;50.002;11.854;2023-09-30T09:36:41;13.20;99.90
46730;DHT22;32476;50.002;11.854;2023-09-30T09:39:09;13.40;99.90
46730;DHT22;32476;50.002;11.854;2023-09-30T09:41:53;13.50;99.90
46730;DHT22;32476;50.002;11.854;2023-09-30T09:44:22;13.60;99.90
46730;DHT22;32476;50.002;11.854;2023-09-30T09:46:50;13.70;99.90
46730;DHT22;32476;50.002;11.854;2023-09-30T09:49:17;13.80;99.90
46730;DHT22;32476;50.002;11.854;2023-09-30T09:51:45;13.90;99.90
46730;DHT22;32476;50.002;11.854;2023-09-30T09:54:15;13.70;99.90
46730;DHT22;32476;50.002;11.854;2023-09-30T09:56:45;14.00;99.90
46730;DHT22;32476;50.002;11.854;2023-09-30T09:59:12;14.00;99.90
46730;DHT22;32476;50.002;11.854;2023-09-30T10:01:40;14.10;99.90
46730;DHT22;32476;50.002;11.854;2023-09-30T10:04:10;14.20;99.90
46730;DHT22;32476;50.002;11.854;2023-09-30T10:06:36;14.30;99.90
46730;DHT22;32476;50.002;11.854;2023-09-30T10:09:11;14.20;99.90
46730;DHT22;32476;50.002;11.854;2023-09-30T10:11:38;13.70;99.90
46730;DHT22;32476;50.002;11.854;2023-09-30T10:14:07;13.40;99.90
46730;DHT22;32476;50.002;11.854;2023-09-30T10:19:21;13.10;99.90
46730;DHT22;32476;50.002;11.854;2023-09-30T10:24:45;13.60;99.90
46730;DHT22;32476;50.002;11.854;2023-09-30T10:30:07;14.10;99.90
46730;DHT22;32476;50.002;11.854;2023-09-30T10:33:07;14.50;99.90
46730;DHT22;32476;50.002;11.854;2023-09-30T10:41:02;14.80;99.90
46730;DHT22;32476;50.002;11.854;2023-09-30T10:43:32;15.00;99.90
46730;DHT22;32476;50.002;11.854;2023-09-30T10:45:59;15.00;99.90
46730;DHT22;32476;50.002;11.854;2023-09-30T10:51:19;15.40;99.90
46730;DHT22;32476;50.002;11.854;2023-09-30T10:53:52;15.50;99.90
46730;DHT22;32476;50.002;11.854;2023-09-30T10:56:23;15.50;99.90
46730;DHT22;32476;50.002;11.854;2023-09-30T10:58:52;15.40;99.90
46730;DHT22;32476;50.002;11.854;2023-09-30T11:01:20;15.60;99.90
46730;DHT22;32476;50.002;11.854;2023-09-30T11:03:48;16.00;99.90
46730;DHT22;32476;50.002;11.854;2023-09-30T11:06:22;16.30;99.90
46730;DHT22;32476;50.002;11.854;2023-09-30T11:08:53;16.60;99.90
46730;DHT22;32476;50.002;11.854;2023-09-30T11:11:53;17.20;99.90
46730;DHT22;32476;50.002;11.854;2023-09-30T11:14:24;16.90;99.90
46730;DHT22;32476;50.002;11.854;2023-09-30T11:16:54;16.80;99.90
46730;DHT22;32476;50.002;11.854;2023-09-30T11:19:22;17.20;99.90
46730;DHT22;32476;50.002;11.854;2023-09-30T11:21:50;17.60;99.90
46730;DHT22;32476;50.002;11.854;2023-09-30T11:24:19;17.50;99.90
46730;DHT22;32476;50.002;11.854;2023-09-30T11:26:48;17.10;99.90
46730;DHT22;32476;50.002;11.854;2023-09-30T11:29:23;17.60;99.90
46730;DHT22;32476;50.002;11.854;2023-09-30T11:31:50;17.50;99.90
46730;DHT22;32476;50.002;11.854;2023-09-30T11:34:17;17.50;99.90
46730;DHT22;32476;50.002;11.854;2023-09-30T11:36:51;17.40;99.90
46730;DHT22;32476;50.002;11.854;2023-09-30T11:39:22;18.00;99.90
46730;DHT22;32476;50.002;11.854;2023-09-30T11:41:51;18.00;99.90
46730;DHT22;32476;50.002;11.854;2023-09-30T11:44:18;18.30;99.90
46730;DHT22;32476;50.002;11.854;2023-09-30T11:46:49;17.60;99.90
46730;DHT22;32476;50.002;11.854;2023-09-30T11:49:35;17.90;99.90
46730;DHT22;32476;50.002;11.854;2023-09-30T11:52:06;17.60;99.90
46730;DHT22;32476;50.002;11.854;2023-09-30T11:54:42;17.90;99.90
46730;DHT22;32476;50.002;11.854;2023-09-30T11:57:16;18.20;99.90
46730;DHT22;32476;50.002;11.854;2023-09-30T11:59:46;18.30;99.90
46730;DHT22;32476;50.002;11.854;2023-09-30T12:02:14;18.70;99.90
46730;DHT22;32476;50.002;11.854;2023-09-30T12:04:44;17.80;99.90
46730;DHT22;32476;50.002;11.854;2023-09-30T12:07:12;17.60;99.90
46730;DHT22;32476;50.002;11.854;2023-09-30T12:09:38;17.60;99.90
46730;DHT22;32476;50.002;11.854;2023-09-30T12:12:06;17.70;99.90
46730;DHT22;32476;50.002;11.854;2023-09-30T12:14:36;17.60;99.90
46730;DHT22;32476;50.002;11.854;2023-09-30T12:17:02;17.70;99.90
46730;DHT22;32476;50.002;11.854;2023-09-30T12:19:28;18.40;99.90
46730;DHT22;32476;50.002;11.854;2023-09-30T12:21:56;18.30;99.90
46730;DHT22;32476;50.002;11.854;2023-09-30T12:24:22;18.30;99.90
46730;DHT22;32476;50.002;11.854;2023-09-30T12:26:51;18.40;99.90
46730;DHT22;32476;50.002;11.854;2023-09-30T12:29:20;18.70;99.90
46730;DHT22;32476;50.002;11.854;2023-09-30T12:31:52;18.30;99.90
46730;DHT22;32476;50.002;11.854;2023-09-30T12:34:19;18.20;99.90
46730;DHT22;32476;50.002;11.854;2023-09-30T12:36:45;18.60;99.90
46730;DHT22;32476;50.002;11.854;2023-09-30T12:39:14;18.60;99.90
46730;DHT22;32476;50.002;11.854;2023-09-30T12:41:44;18.60;99.90
46730;DHT22;32476;50.002;11.854;2023-09-30T12:44:10;18.90;99.90
46730;DHT22;32476;50.002;11.854;2023-09-30T12:46:37;19.30;99.90
46730;DHT22;32476;50.002;11.854;2023-09-30T12:49:07;19.30;99.90
46730;DHT22;32476;50.002;11.854;2023-09-30T12:51:33;19.30;99.90
46730;DHT22;32476;50.002;11.854;2023-09-30T12:54:00;19.40;99.90
46730;DHT22;32476;50.002;11.854;2023-09-30T12:56:27;19.60;99.90
46730;DHT22;32476;50.002;11.854;2023-09-30T12:58:58;19.40;99.90
46730;DHT22;32476;50.002;11.854;2023-09-30T13:01:25;19.60;99.90
46730;DHT22;32476;50.002;11.854;2023-09-30T13:03:52;19.50;99.90
46730;DHT22;32476;50.002;11.854;2023-09-30T13:06:19;19.70;99.90
46730;DHT22;32476;50.002;11.854;2023-09-30T13:08:45;20.20;99.90
46730;DHT22;32476;50.002;11.854;2023-09-30T13:11:14;19.80;99.80
46730;DHT22;32476;50.002;11.854;2023-09-30T13:13:40;20.10;99.90
46730;DHT22;32476;50.002;11.854;2023-09-30T13:16:06;19.50;97.70
46730;DHT22;32476;50.002;11.854;2023-09-30T13:18:34;19.80;98.30
46730;DHT22;32476;50.002;11.854;2023-09-30T13:21:00;19.80;98.50
46730;DHT22;32476;50.002;11.854;2023-09-30T13:23:26;19.60;97.40
46730;DHT22;32476;50.002;11.854;2023-09-30T13:25:54;19.80;98.20
46730;DHT22;32476;50.002;11.854;2023-09-30T13:28:21;19.90;98.70
46730;DHT22;32476;50.002;11.854;2023-09-30T13:30:47;19.60;97.30
46730;DHT22;32476;50.002;11.854;2023-09-30T13:33:15;20.00;98.00
46730;DHT22;32476;50.002;11.854;2023-09-30T13:35:41;20.10;97.70
46730;DHT22;32476;50.002;11.854;2023-09-30T13:38:07;20.10;98.30
46730;DHT22;32476;50.002;11.854;2023-09-30T13:40:35;20.40;95.40
46730;DHT22;32476;50.002;11.854;2023-09-30T13:43:03;20.10;97.40
46730;DHT22;32476;50.002;11.854;2023-09-30T13:45:30;20.30;96.90
46730;DHT22;32476;50.002;11.854;2023-09-30T13:47:57;20.20;97.00
46730;DHT22;32476;50.002;11.854;2023-09-30T13:50:23;20.30;95.80
46730;DHT22;32476;50.002;11.854;2023-09-30T13:52:49;20.20;96.20
46730;DHT22;32476;50.002;11.854;2023-09-30T13:55:17;20.30;97.00
46730;DHT22;32476;50.002;11.854;2023-09-30T13:57:45;20.00;95.40
46730;DHT22;32476;50.002;11.854;2023-09-30T14:00:12;19.70;96.50
46730;DHT22;32476;50.002;11.854;2023-09-30T14:02:41;19.40;96.30
46730;DHT22;32476;50.002;11.854;2023-09-30T14:05:07;19.50;96.60
46730;DHT22;32476;50.002;11.854;2023-09-30T14:07:34;19.90;97.30
46730;DHT22;32476;50.002;11.854;2023-09-30T14:10:03;19.70;94.80
46730;DHT22;32476;50.002;11.854;2023-09-30T14:12:29;19.50;97.60
46730;DHT22;32476;50.002;11.854;2023-09-30T14:14:56;19.60;96.90
46730;DHT22;32476;50.002;11.854;2023-09-30T14:17:23;19.50;95.90
46730;DHT22;32476;50.002;11.854;2023-09-30T14:19:51;19.40;97.30
46730;DHT22;32476;50.002;11.854;2023-09-30T14:22:17;19.40;96.50
46730;DHT22;32476;50.002;11.854;2023-09-30T14:24:45;19.00;97.00
46730;DHT22;32476;50.002;11.854;2023-09-30T14:27:11;19.00;97.00
46730;DHT22;32476;50.002;11.854;2023-09-30T14:29:39;19.00;98.50
46730;DHT22;32476;50.002;11.854;2023-09-30T14:32:07;19.00;98.60
46730;DHT22;32476;50.002;11.854;2023-09-30T14:34:33;19.10;96.60
46730;DHT22;32476;50.002;11.854;2023-09-30T14:36:58;19.20;96.70
46730;DHT22;32476;50.002;11.854;2023-09-30T14:39:26;18.60;97.00
46730;DHT22;32476;50.002;11.854;2023-09-30T14:41:52;18.70;97.80
46730;DHT22;32476;50.002;11.854;2023-09-30T14:44:18;18.40;97.40
46730;DHT22;32476;50.002;11.854;2023-09-30T14:46:48;18.40;98.20
46730;DHT22;32476;50.002;11.854;2023-09-30T14:49:14;18.30;97.40
46730;DHT22;32476;50.002;11.854;2023-09-30T14:51:40;18.40;99.50
46730;DHT22;32476;50.002;11.854;2023-09-30T14:54:08;18.20;97.50
46730;DHT22;32476;50.002;11.854;2023-09-30T14:56:34;18.30;98.60
46730;DHT22;32476;50.002;11.854;2023-09-30T14:59:00;18.20;98.50
46730;DHT22;32476;50.002;11.854;2023-09-30T15:01:27;18.20;98.80
46730;DHT22;32476;50.002;11.854;2023-09-30T15:03:54;18.20;98.70
46730;DHT22;32476;50.002;11.854;2023-09-30T15:06:20;17.90;97.30
46730;DHT22;32476;50.002;11.854;2023-09-30T15:08:51;17.70;99.00
46730;DHT22;32476;50.002;11.854;2023-09-30T15:11:17;17.90;98.50
46730;DHT22;32476;50.002;11.854;2023-09-30T15:13:44;17.80;99.60
46730;DHT22;32476;50.002;11.854;2023-09-30T15:16:20;18.00;98.20
46730;DHT22;32476;50.002;11.854;2023-09-30T15:18:47;17.60;99.50
46730;DHT22;32476;50.002;11.854;2023-09-30T15:21:16;17.70;99.90
46730;DHT22;32476;50.002;11.854;2023-09-30T15:23:42;17.70;99.40
46730;DHT22;32476;50.002;11.854;2023-09-30T15:26:08;17.80;98.60
46730;DHT22;32476;50.002;11.854;2023-09-30T15:28:36;17.60;99.00
46730;DHT22;32476;50.002;11.854;2023-09-30T15:31:03;17.90;99.90
46730;DHT22;32476;50.002;11.854;2023-09-30T15:33:29;17.90;99.90
46730;DHT22;32476;50.002;11.854;2023-09-30T15:35:57;17.80;99.90
46730;DHT22;32476;50.002;11.854;2023-09-30T15:38:23;17.60;99.60